sensor_id;sensor_type;location;lat;lon;timestamp;P1;durP1;ratioP1;P2;durP2;ratioP2
62030;SDS011;62035;52.094;5.112;2022-07-21T00:00:20;7.50;;;5.50;;
62030;SDS011;62035;52.094;5.112;2022-07-21T00:02:50;7.72;;;5.40;;
62030;SDS011;62035;52.094;5.112;2022-07-21T00:05:19;8.05;;;4.88;;
62030;SDS011;62035;52.094;5.112;2022-07-21T00:07:47;7.22;;;5.15;;
62030;SDS011;62035;52.094;5.112;2022-07-21T00:10:15;5.85;;;4.50;;
62030;SDS011;62035;52.094;5.112;2022-07-21T00:12:44;7.18;;;5.00;;
62030;SDS011;62035;52.094;5.112;2022-07-21T00:15:12;7.82;;;5.00;;
62030;SDS011;62035;52.094;5.112;2022-07-21T00:17:43;6.60;;;4.75;;
62030;SDS011;62035;52.094;5.112;2022-07-21T00:20:12;6.60;;;5.00;;
62030;SDS011;62035;52.094;5.112;2022-07-21T00:22:42;7.35;;;5.13;;
62030;SDS011;62035;52.094;5.112;2022-07-21T00:25:11;8.98;;;5.00;;
62030;SDS011;62035;52.094;5.112;2022-07-21T00:27:41;7.72;;;5.05;;
62030;SDS011;62035;52.094;5.112;2022-07-21T00:30:10;7.82;;;4.80;;
62030;SDS011;62035;52.094;5.112;2022-07-21T00:32:40;7.93;;;5.03;;
62030;SDS011;62035;52.094;5.112;2022-07-21T00:35:10;6.28;;;4.60;;
62030;SDS011;62035;52.094;5.112;2022-07-21T00:37:39;9.50;;;4.50;;
62030;SDS011;62035;52.094;5.112;2022-07-21T00:40:09;7.60;;;4.75;;
62030;SDS011;62035;52.094;5.112;2022-07-21T00:42:41;8.00;;;5.25;;
62030;SDS011;62035;52.094;5.112;2022-07-21T00:45:10;7.35;;;4.68;;
62030;SDS011;62035;52.094;5.112;2022-07-21T00:47:39;7.30;;;5.20;;
62030;SDS011;62035;52.094;5.112;2022-07-21T00:50:11;8.07;;;5.25;;
62030;SDS011;62035;52.094;5.112;2022-07-21T00:52:42;8.70;;;5.10;;
62030;SDS011;62035;52.094;5.112;2022-07-21T00:55:11;6.03;;;4.90;;
62030;SDS011;62035;52.094;5.112;2022-07-21T00:57:41;8.13;;;4.90;;
62030;SDS011;62035;52.094;5.112;2022-07-21T01:00:12;8.27;;;5.45;;
62030;SDS011;62035;52.094;5.112;2022-07-21T01:02:46;6.25;;;4.85;;
62030;SDS011;62035;52.094;5.112;2022-07-21T01:05:14;8.68;;;5.20;;
62030;SDS011;62035;52.094;5.112;2022-07-21T01:07:42;9.68;;;5.50;;
62030;SDS011;62035;52.094;5.112;2022-07-21T01:10:13;8.52;;;5.72;;
62030;SDS011;62035;52.094;5.112;2022-07-21T01:12:42;10.48;;;5.40;;
62030;SDS011;62035;52.094;5.112;2022-07-21T01:15:10;7.50;;;5.60;;
62030;SDS011;62035;52.094;5.112;2022-07-21T01:17:41;8.07;;;5.93;;
62030;SDS011;62035;52.094;5.112;2022-07-21T01:20:12;9.95;;;5.85;;
62030;SDS011;62035;52.094;5.112;2022-07-21T01:22:45;7.90;;;5.95;;
62030;SDS011;62035;52.094;5.112;2022-07-21T01:25:17;7.78;;;5.95;;
62030;SDS011;62035;52.094;5.112;2022-07-21T01:27:46;8.52;;;6.40;;
62030;SDS011;62035;52.094;5.112;2022-07-21T01:30:14;10.38;;;6.72;;
62030;SDS011;62035;52.094;5.112;2022-07-21T01:32:43;9.57;;;6.20;;
62030;SDS011;62035;52.094;5.112;2022-07-21T01:35:12;9.43;;;6.45;;
62030;SDS011;62035;52.094;5.112;2022-07-21T01:37:41;9.15;;;6.45;;
62030;SDS011;62035;52.094;5.112;2022-07-21T01:40:13;9.85;;;7.05;;
62030;SDS011;62035;52.094;5.112;2022-07-21T01:43:00;10.43;;;7.32;;
62030;SDS011;62035;52.094;5.112;2022-07-21T01:45:28;9.45;;;7.13;;
62030;SDS011;62035;52.094;5.112;2022-07-21T01:47:55;11.80;;;7.60;;
62030;SDS011;62035;52.094;5.112;2022-07-21T01:50:24;10.05;;;7.28;;
62030;SDS011;62035;52.094;5.112;2022-07-21T01:52:55;9.77;;;7.18;;
62030;SDS011;62035;52.094;5.112;2022-07-21T01:55:24;12.40;;;7.40;;
62030;SDS011;62035;52.094;5.112;2022-07-21T01:57:54;12.82;;;7.97;;
62030;SDS011;62035;52.094;5.112;2022-07-21T02:00:21;10.88;;;7.55;;
62030;SDS011;62035;52.094;5.112;2022-07-21T02:02:49;11.20;;;7.78;;
62030;SDS011;62035;52.094;5.112;2022-07-21T02:05:17;11.20;;;7.82;;
62030;SDS011;62035;52.094;5.112;2022-07-21T02:07:44;11.77;;;8.30;;
62030;SDS011;62035;52.094;5.112;2022-07-21T02:10:13;10.25;;;8.02;;
62030;SDS011;62035;52.094;5.112;2022-07-21T02:12:41;11.05;;;8.00;;
62030;SDS011;62035;52.094;5.112;2022-07-21T02:15:09;10.80;;;8.45;;
62030;SDS011;62035;52.094;5.112;2022-07-21T02:17:37;10.80;;;8.52;;
62030;SDS011;62035;52.094;5.112;2022-07-21T02:20:05;13.23;;;8.98;;
62030;SDS011;62035;52.094;5.112;2022-07-21T02:22:34;13.30;;;8.85;;
62030;SDS011;62035;52.094;5.112;2022-07-21T02:25:01;16.42;;;10.02;;
62030;SDS011;62035;52.094;5.112;2022-07-21T02:27:31;14.57;;;10.23;;
62030;SDS011;62035;52.094;5.112;2022-07-21T02:29:59;13.02;;;9.57;;
62030;SDS011;62035;52.094;5.112;2022-07-21T02:32:26;14.52;;;9.70;;
62030;SDS011;62035;52.094;5.112;2022-07-21T02:34:54;15.80;;;11.77;;
62030;SDS011;62035;52.094;5.112;2022-07-21T02:37:21;15.38;;;10.98;;
62030;SDS011;62035;52.094;5.112;2022-07-21T02:39:49;15.68;;;10.23;;
62030;SDS011;62035;52.094;5.112;2022-07-21T02:42:17;14.52;;;10.48;;
62030;SDS011;62035;52.094;5.112;2022-07-21T02:44:46;17.23;;;10.68;;
62030;SDS011;62035;52.094;5.112;2022-07-21T02:47:13;15.77;;;11.32;;
62030;SDS011;62035;52.094;5.112;2022-07-21T02:49:41;17.42;;;12.38;;
62030;SDS011;62035;52.094;5.112;2022-07-21T02:52:10;19.50;;;11.55;;
62030;SDS011;62035;52.094;5.112;2022-07-21T02:54:38;17.90;;;12.50;;
62030;SDS011;62035;52.094;5.112;2022-07-21T02:57:05;15.63;;;10.65;;
62030;SDS011;62035;52.094;5.112;2022-07-21T02:59:33;16.88;;;10.98;;
62030;SDS011;62035;52.094;5.112;2022-07-21T03:02:02;17.30;;;11.55;;
62030;SDS011;62035;52.094;5.112;2022-07-21T03:04:29;15.55;;;11.27;;
62030;SDS011;62035;52.094;5.112;2022-07-21T03:06:57;18.48;;;12.55;;
62030;SDS011;62035;52.094;5.112;2022-07-21T03:09:24;16.70;;;11.52;;
62030;SDS011;62035;52.094;5.112;2022-07-21T03:11:52;21.17;;;12.10;;
62030;SDS011;62035;52.094;5.112;2022-07-21T03:14:20;16.13;;;11.13;;
62030;SDS011;62035;52.094;5.112;2022-07-21T03:16:47;16.58;;;11.85;;
62030;SDS011;62035;52.094;5.112;2022-07-21T03:19:16;16.08;;;11.43;;
62030;SDS011;62035;52.094;5.112;2022-07-21T03:21:43;15.90;;;12.10;;
62030;SDS011;62035;52.094;5.112;2022-07-21T03:24:11;14.07;;;11.23;;
62030;SDS011;62035;52.094;5.112;2022-07-21T03:26:38;16.50;;;12.23;;
62030;SDS011;62035;52.094;5.112;2022-07-21T03:29:06;19.65;;;12.98;;
62030;SDS011;62035;52.094;5.112;2022-07-21T03:31:35;17.73;;;12.80;;
62030;SDS011;62035;52.094;5.112;2022-07-21T03:34:02;18.77;;;12.65;;
62030;SDS011;62035;52.094;5.112;2022-07-21T03:36:31;18.48;;;12.95;;
62030;SDS011;62035;52.094;5.112;2022-07-21T03:38:59;20.40;;;13.13;;
62030;SDS011;62035;52.094;5.112;2022-07-21T03:41:27;19.38;;;12.77;;
62030;SDS011;62035;52.094;5.112;2022-07-21T03:43:54;16.13;;;12.15;;
62030;SDS011;62035;52.094;5.112;2022-07-21T03:46:22;17.15;;;11.95;;
62030;SDS011;62035;52.094;5.112;2022-07-21T03:48:50;16.83;;;11.55;;
62030;SDS011;62035;52.094;5.112;2022-07-21T03:51:17;17.60;;;12.60;;
62030;SDS011;62035;52.094;5.112;2022-07-21T03:53:46;16.48;;;11.98;;
62030;SDS011;62035;52.094;5.112;2022-07-21T03:56:15;16.98;;;12.48;;
62030;SDS011;62035;52.094;5.112;2022-07-21T03:58:42;19.85;;;12.20;;
62030;SDS011;62035;52.094;5.112;2022-07-21T04:01:10;15.93;;;12.70;;
62030;SDS011;62035;52.094;5.112;2022-07-21T04:03:37;18.35;;;13.15;;
62030;SDS011;62035;52.094;5.112;2022-07-21T04:06:05;18.08;;;12.43;;
62030;SDS011;62035;52.094;5.112;2022-07-21T04:08:36;18.17;;;12.68;;
62030;SDS011;62035;52.094;5.112;2022-07-21T04:11:05;17.48;;;12.88;;
62030;SDS011;62035;52.094;5.112;2022-07-21T04:13:32;17.80;;;13.02;;
62030;SDS011;62035;52.094;5.112;2022-07-21T04:16:00;20.13;;;13.40;;
62030;SDS011;62035;52.094;5.112;2022-07-21T04:18:27;21.38;;;13.32;;
62030;SDS011;62035;52.094;5.112;2022-07-21T04:20:55;17.60;;;11.95;;
62030;SDS011;62035;52.094;5.112;2022-07-21T04:23:22;17.95;;;13.20;;
62030;SDS011;62035;52.094;5.112;2022-07-21T04:25:50;21.83;;;14.15;;
62030;SDS011;62035;52.094;5.112;2022-07-21T04:28:19;19.55;;;13.50;;
62030;SDS011;62035;52.094;5.112;2022-07-21T04:30:47;18.00;;;13.75;;
62030;SDS011;62035;52.094;5.112;2022-07-21T04:33:14;17.30;;;12.88;;
62030;SDS011;62035;52.094;5.112;2022-07-21T04:35:42;18.95;;;12.57;;
62030;SDS011;62035;52.094;5.112;2022-07-21T04:38:09;20.23;;;13.30;;
62030;SDS011;62035;52.094;5.112;2022-07-21T04:40:38;22.33;;;13.70;;
62030;SDS011;62035;52.094;5.112;2022-07-21T04:43:06;19.85;;;13.63;;
62030;SDS011;62035;52.094;5.112;2022-07-21T04:45:35;21.92;;;15.35;;
62030;SDS011;62035;52.094;5.112;2022-07-21T04:48:03;21.42;;;14.70;;
62030;SDS011;62035;52.094;5.112;2022-07-21T04:50:31;20.23;;;14.75;;
62030;SDS011;62035;52.094;5.112;2022-07-21T04:52:59;25.10;;;16.00;;
62030;SDS011;62035;52.094;5.112;2022-07-21T04:55:26;22.10;;;15.93;;
62030;SDS011;62035;52.094;5.112;2022-07-21T04:57:54;21.08;;;15.13;;
62030;SDS011;62035;52.094;5.112;2022-07-21T05:00:24;22.70;;;15.63;;
62030;SDS011;62035;52.094;5.112;2022-07-21T05:02:53;27.10;;;16.88;;
62030;SDS011;62035;52.094;5.112;2022-07-21T05:05:21;25.73;;;15.95;;
62030;SDS011;62035;52.094;5.112;2022-07-21T05:07:50;28.80;;;18.42;;
62030;SDS011;62035;52.094;5.112;2022-07-21T05:10:17;23.75;;;16.35;;
62030;SDS011;62035;52.094;5.112;2022-07-21T05:12:47;29.25;;;17.15;;
62030;SDS011;62035;52.094;5.112;2022-07-21T05:15:14;24.65;;;14.93;;
62030;SDS011;62035;52.094;5.112;2022-07-21T05:17:43;25.00;;;16.05;;
62030;SDS011;62035;52.094;5.112;2022-07-21T05:20:12;26.10;;;16.17;;
62030;SDS011;62035;52.094;5.112;2022-07-21T05:22:40;20.60;;;15.00;;
62030;SDS011;62035;52.094;5.112;2022-07-21T05:25:08;23.02;;;15.18;;
62030;SDS011;62035;52.094;5.112;2022-07-21T05:27:36;19.52;;;14.55;;
62030;SDS011;62035;52.094;5.112;2022-07-21T05:30:04;21.10;;;13.95;;
62030;SDS011;62035;52.094;5.112;2022-07-21T05:32:33;23.92;;;15.00;;
62030;SDS011;62035;52.094;5.112;2022-07-21T05:35:01;22.73;;;13.32;;
62030;SDS011;62035;52.094;5.112;2022-07-21T05:37:35;21.73;;;13.98;;
62030;SDS011;62035;52.094;5.112;2022-07-21T05:40:03;17.48;;;12.85;;
62030;SDS011;62035;52.094;5.112;2022-07-21T05:42:32;18.42;;;12.55;;
62030;SDS011;62035;52.094;5.112;2022-07-21T05:45:00;19.83;;;13.02;;
62030;SDS011;62035;52.094;5.112;2022-07-21T05:47:28;21.88;;;13.40;;
62030;SDS011;62035;52.094;5.112;2022-07-21T05:49:57;20.80;;;13.02;;
62030;SDS011;62035;52.094;5.112;2022-07-21T05:52:25;20.45;;;13.50;;
62030;SDS011;62035;52.094;5.112;2022-07-21T05:54:54;25.23;;;14.18;;
62030;SDS011;62035;52.094;5.112;2022-07-21T05:57:21;21.40;;;13.98;;
62030;SDS011;62035;52.094;5.112;2022-07-21T05:59:49;25.00;;;13.65;;
62030;SDS011;62035;52.094;5.112;2022-07-21T06:02:16;22.13;;;13.20;;
62030;SDS011;62035;52.094;5.112;2022-07-21T06:04:44;22.92;;;13.40;;
62030;SDS011;62035;52.094;5.112;2022-07-21T06:07:12;22.02;;;13.38;;
62030;SDS011;62035;52.094;5.112;2022-07-21T06:09:39;24.52;;;14.30;;
62030;SDS011;62035;52.094;5.112;2022-07-21T06:12:08;25.33;;;14.13;;
62030;SDS011;62035;52.094;5.112;2022-07-21T06:14:36;23.08;;;14.00;;
62030;SDS011;62035;52.094;5.112;2022-07-21T06:17:04;21.95;;;13.45;;
62030;SDS011;62035;52.094;5.112;2022-07-21T06:19:31;27.92;;;14.45;;
62030;SDS011;62035;52.094;5.112;2022-07-21T06:21:59;24.35;;;14.25;;
62030;SDS011;62035;52.094;5.112;2022-07-21T06:24:28;22.00;;;14.32;;
62030;SDS011;62035;52.094;5.112;2022-07-21T06:26:55;22.65;;;14.93;;
62030;SDS011;62035;52.094;5.112;2022-07-21T06:29:24;31.08;;;17.08;;
62030;SDS011;62035;52.094;5.112;2022-07-21T06:31:52;32.20;;;16.90;;
62030;SDS011;62035;52.094;5.112;2022-07-21T06:34:20;37.17;;;17.48;;
62030;SDS011;62035;52.094;5.112;2022-07-21T06:36:47;33.08;;;16.33;;
62030;SDS011;62035;52.094;5.112;2022-07-21T06:39:15;33.85;;;18.55;;
62030;SDS011;62035;52.094;5.112;2022-07-21T06:41:42;31.75;;;17.35;;
62030;SDS011;62035;52.094;5.112;2022-07-21T06:44:10;37.70;;;19.80;;
62030;SDS011;62035;52.094;5.112;2022-07-21T06:46:39;33.63;;;19.45;;
62030;SDS011;62035;52.094;5.112;2022-07-21T06:49:06;36.72;;;18.90;;
62030;SDS011;62035;52.094;5.112;2022-07-21T06:51:35;35.60;;;18.83;;
62030;SDS011;62035;52.094;5.112;2022-07-21T06:54:02;35.53;;;18.30;;
62030;SDS011;62035;52.094;5.112;2022-07-21T06:56:30;31.65;;;18.20;;
62030;SDS011;62035;52.094;5.112;2022-07-21T06:58:57;32.75;;;18.00;;
62030;SDS011;62035;52.094;5.112;2022-07-21T07:01:25;32.40;;;18.30;;
62030;SDS011;62035;52.094;5.112;2022-07-21T07:03:54;34.83;;;18.42;;
62030;SDS011;62035;52.094;5.112;2022-07-21T07:06:21;35.88;;;18.42;;
62030;SDS011;62035;52.094;5.112;2022-07-21T07:08:49;32.30;;;17.45;;
62030;SDS011;62035;52.094;5.112;2022-07-21T07:11:17;32.33;;;18.80;;
62030;SDS011;62035;52.094;5.112;2022-07-21T07:13:44;41.13;;;20.55;;
62030;SDS011;62035;52.094;5.112;2022-07-21T07:16:12;40.45;;;20.33;;
62030;SDS011;62035;52.094;5.112;2022-07-21T07:18:40;31.15;;;18.35;;
62030;SDS011;62035;52.094;5.112;2022-07-21T07:21:09;41.13;;;19.77;;
62030;SDS011;62035;52.094;5.112;2022-07-21T07:23:37;43.35;;;20.08;;
62030;SDS011;62035;52.094;5.112;2022-07-21T07:26:05;45.10;;;20.10;;
62030;SDS011;62035;52.094;5.112;2022-07-21T07:28:33;44.63;;;21.13;;
62030;SDS011;62035;52.094;5.112;2022-07-21T07:31:01;37.67;;;20.02;;
62030;SDS011;62035;52.094;5.112;2022-07-21T07:33:29;38.35;;;20.25;;
62030;SDS011;62035;52.094;5.112;2022-07-21T07:35:56;45.13;;;20.00;;
62030;SDS011;62035;52.094;5.112;2022-07-21T07:38:25;41.40;;;21.35;;
62030;SDS011;62035;52.094;5.112;2022-07-21T07:40:53;37.45;;;20.17;;
62030;SDS011;62035;52.094;5.112;2022-07-21T07:43:20;39.00;;;20.85;;
62030;SDS011;62035;52.094;5.112;2022-07-21T07:45:48;42.13;;;20.52;;
62030;SDS011;62035;52.094;5.112;2022-07-21T07:48:16;39.50;;;21.02;;
62030;SDS011;62035;52.094;5.112;2022-07-21T07:50:43;46.63;;;21.58;;
62030;SDS011;62035;52.094;5.112;2022-07-21T07:53:11;42.70;;;22.65;;
62030;SDS011;62035;52.094;5.112;2022-07-21T07:55:40;44.88;;;22.42;;
62030;SDS011;62035;52.094;5.112;2022-07-21T07:58:07;46.53;;;22.65;;
62030;SDS011;62035;52.094;5.112;2022-07-21T08:00:35;50.90;;;22.52;;
62030;SDS011;62035;52.094;5.112;2022-07-21T08:03:03;38.40;;;21.42;;
62030;SDS011;62035;52.094;5.112;2022-07-21T08:05:31;51.20;;;23.67;;
62030;SDS011;62035;52.094;5.112;2022-07-21T08:07:59;40.72;;;22.38;;
62030;SDS011;62035;52.094;5.112;2022-07-21T08:10:26;35.80;;;20.48;;
62030;SDS011;62035;52.094;5.112;2022-07-21T08:12:56;34.90;;;19.85;;
62030;SDS011;62035;52.094;5.112;2022-07-21T08:15:23;33.00;;;19.65;;
62030;SDS011;62035;52.094;5.112;2022-07-21T08:17:51;31.55;;;18.15;;
62030;SDS011;62035;52.094;5.112;2022-07-21T08:20:18;27.75;;;18.45;;
62030;SDS011;62035;52.094;5.112;2022-07-21T08:22:46;30.55;;;16.13;;
62030;SDS011;62035;52.094;5.112;2022-07-21T08:25:13;28.88;;;16.35;;
62030;SDS011;62035;52.094;5.112;2022-07-21T08:27:41;27.02;;;16.85;;
62030;SDS011;62035;52.094;5.112;2022-07-21T08:30:11;21.67;;;13.93;;
62030;SDS011;62035;52.094;5.112;2022-07-21T08:32:39;26.13;;;13.20;;
62030;SDS011;62035;52.094;5.112;2022-07-21T08:35:07;22.45;;;13.35;;
62030;SDS011;62035;52.094;5.112;2022-07-21T08:37:35;20.60;;;13.43;;
62030;SDS011;62035;52.094;5.112;2022-07-21T08:40:03;24.88;;;13.77;;
62030;SDS011;62035;52.094;5.112;2022-07-21T08:42:33;20.60;;;11.55;;
62030;SDS011;62035;52.094;5.112;2022-07-21T08:45:01;17.15;;;9.43;;
62030;SDS011;62035;52.094;5.112;2022-07-21T08:47:31;15.02;;;8.95;;
62030;SDS011;62035;52.094;5.112;2022-07-21T08:49:59;12.40;;;8.55;;
62030;SDS011;62035;52.094;5.112;2022-07-21T08:52:28;13.73;;;8.35;;
62030;SDS011;62035;52.094;5.112;2022-07-21T08:54:56;14.73;;;8.02;;
62030;SDS011;62035;52.094;5.112;2022-07-21T08:57:23;16.15;;;8.25;;
62030;SDS011;62035;52.094;5.112;2022-07-21T08:59:51;13.63;;;7.57;;
62030;SDS011;62035;52.094;5.112;2022-07-21T09:02:25;12.05;;;7.80;;
62030;SDS011;62035;52.094;5.112;2022-07-21T09:04:56;11.40;;;8.23;;
62030;SDS011;62035;52.094;5.112;2022-07-21T09:07:23;10.30;;;7.63;;
62030;SDS011;62035;52.094;5.112;2022-07-21T09:09:55;11.77;;;7.93;;
62030;SDS011;62035;52.094;5.112;2022-07-21T09:12:25;11.13;;;8.15;;
62030;SDS011;62035;52.094;5.112;2022-07-21T09:17:41;14.60;;;7.97;;
62030;SDS011;62035;52.094;5.112;2022-07-21T09:20:22;10.18;;;7.07;;
62030;SDS011;62035;52.094;5.112;2022-07-21T09:25:42;8.40;;;6.47;;
62030;SDS011;62035;52.094;5.112;2022-07-21T09:28:13;10.98;;;6.53;;
62030;SDS011;62035;52.094;5.112;2022-07-21T09:30:50;7.72;;;6.15;;
62030;SDS011;62035;52.094;5.112;2022-07-21T09:33:27;9.05;;;7.05;;
62030;SDS011;62035;52.094;5.112;2022-07-21T09:36:04;11.07;;;6.90;;
62030;SDS011;62035;52.094;5.112;2022-07-21T09:38:35;8.70;;;6.40;;
62030;SDS011;62035;52.094;5.112;2022-07-21T09:41:08;8.30;;;6.20;;
62030;SDS011;62035;52.094;5.112;2022-07-21T09:43:39;9.63;;;6.20;;
62030;SDS011;62035;52.094;5.112;2022-07-21T09:48:41;11.50;;;5.93;;
62030;SDS011;62035;52.094;5.112;2022-07-21T09:51:25;10.55;;;5.90;;
62030;SDS011;62035;52.094;5.112;2022-07-21T09:53:57;11.65;;;6.47;;
62030;SDS011;62035;52.094;5.112;2022-07-21T09:56:29;8.07;;;5.93;;
62030;SDS011;62035;52.094;5.112;2022-07-21T09:58:59;11.80;;;6.65;;
62030;SDS011;62035;52.094;5.112;2022-07-21T10:01:29;14.30;;;7.13;;
62030;SDS011;62035;52.094;5.112;2022-07-21T10:03:58;12.57;;;7.45;;
62030;SDS011;62035;52.094;5.112;2022-07-21T10:06:28;12.77;;;7.05;;
62030;SDS011;62035;52.094;5.112;2022-07-21T10:08:59;13.18;;;7.10;;
62030;SDS011;62035;52.094;5.112;2022-07-21T10:11:30;15.82;;;6.90;;
62030;SDS011;62035;52.094;5.112;2022-07-21T10:13:59;13.93;;;7.47;;
62030;SDS011;62035;52.094;5.112;2022-07-21T10:16:28;11.32;;;7.65;;
62030;SDS011;62035;52.094;5.112;2022-07-21T10:18:58;12.48;;;7.90;;
62030;SDS011;62035;52.094;5.112;2022-07-21T10:21:39;11.50;;;6.95;;
62030;SDS011;62035;52.094;5.112;2022-07-21T10:24:13;14.00;;;7.15;;
62030;SDS011;62035;52.094;5.112;2022-07-21T10:32:25;14.70;;;8.00;;
62030;SDS011;62035;52.094;5.112;2022-07-21T10:34:57;12.50;;;7.90;;
62030;SDS011;62035;52.094;5.112;2022-07-21T10:37:44;11.27;;;7.25;;
62030;SDS011;62035;52.094;5.112;2022-07-21T10:40:35;14.55;;;7.50;;
62030;SDS011;62035;52.094;5.112;2022-07-21T10:49:06;17.17;;;8.32;;
62030;SDS011;62035;52.094;5.112;2022-07-21T10:51:36;16.73;;;8.32;;
62030;SDS011;62035;52.094;5.112;2022-07-21T10:54:16;17.35;;;8.00;;
62030;SDS011;62035;52.094;5.112;2022-07-21T10:56:47;17.27;;;7.88;;
62030;SDS011;62035;52.094;5.112;2022-07-21T10:59:14;15.50;;;7.70;;
62030;SDS011;62035;52.094;5.112;2022-07-21T11:01:42;12.68;;;6.75;;
62030;SDS011;62035;52.094;5.112;2022-07-21T11:04:11;9.70;;;6.30;;
62030;SDS011;62035;52.094;5.112;2022-07-21T11:06:43;11.95;;;6.40;;
62030;SDS011;62035;52.094;5.112;2022-07-21T11:09:13;12.98;;;6.57;;
62030;SDS011;62035;52.094;5.112;2022-07-21T11:11:57;10.23;;;5.80;;
62030;SDS011;62035;52.094;5.112;2022-07-21T11:14:38;12.20;;;6.38;;
62030;SDS011;62035;52.094;5.112;2022-07-21T11:17:09;11.15;;;5.75;;
62030;SDS011;62035;52.094;5.112;2022-07-21T11:19:41;8.73;;;5.45;;
62030;SDS011;62035;52.094;5.112;2022-07-21T11:22:15;11.10;;;4.88;;
62030;SDS011;62035;52.094;5.112;2022-07-21T11:24:47;9.95;;;5.65;;
62030;SDS011;62035;52.094;5.112;2022-07-21T11:27:20;8.50;;;5.80;;
62030;SDS011;62035;52.094;5.112;2022-07-21T11:29:50;9.93;;;5.63;;
62030;SDS011;62035;52.094;5.112;2022-07-21T11:32:21;13.02;;;5.32;;
62030;SDS011;62035;52.094;5.112;2022-07-21T11:34:50;9.95;;;5.75;;
62030;SDS011;62035;52.094;5.112;2022-07-21T11:37:26;9.10;;;5.35;;
62030;SDS011;62035;52.094;5.112;2022-07-21T11:39:56;7.22;;;4.28;;
62030;SDS011;62035;52.094;5.112;2022-07-21T11:42:26;13.27;;;4.93;;
62030;SDS011;62035;52.094;5.112;2022-07-21T11:44:56;7.55;;;4.90;;
62030;SDS011;62035;52.094;5.112;2022-07-21T11:47:25;8.07;;;5.00;;
62030;SDS011;62035;52.094;5.112;2022-07-21T11:49:53;6.32;;;4.70;;
62030;SDS011;62035;52.094;5.112;2022-07-21T11:52:24;6.95;;;5.22;;
62030;SDS011;62035;52.094;5.112;2022-07-21T11:54:54;8.10;;;5.13;;
62030;SDS011;62035;52.094;5.112;2022-07-21T11:57:26;7.38;;;4.55;;
62030;SDS011;62035;52.094;5.112;2022-07-21T11:59:55;9.07;;;4.60;;
62030;SDS011;62035;52.094;5.112;2022-07-21T12:02:25;7.68;;;4.30;;
62030;SDS011;62035;52.094;5.112;2022-07-21T12:04:55;8.88;;;4.28;;
62030;SDS011;62035;52.094;5.112;2022-07-21T12:07:26;7.82;;;4.07;;
62030;SDS011;62035;52.094;5.112;2022-07-21T12:09:57;6.38;;;3.80;;
62030;SDS011;62035;52.094;5.112;2022-07-21T12:12:32;6.07;;;3.58;;
62030;SDS011;62035;52.094;5.112;2022-07-21T12:15:09;6.55;;;3.63;;
62030;SDS011;62035;52.094;5.112;2022-07-21T12:17:42;8.20;;;3.17;;
62030;SDS011;62035;52.094;5.112;2022-07-21T12:20:13;6.07;;;3.45;;
62030;SDS011;62035;52.094;5.112;2022-07-21T12:22:50;5.35;;;3.45;;
62030;SDS011;62035;52.094;5.112;2022-07-21T12:25:28;13.23;;;3.15;;
62030;SDS011;62035;52.094;5.112;2022-07-21T12:28:00;9.23;;;3.50;;
62030;SDS011;62035;52.094;5.112;2022-07-21T12:30:34;5.25;;;3.08;;
62030;SDS011;62035;52.094;5.112;2022-07-21T12:33:06;4.90;;;2.80;;
62030;SDS011;62035;52.094;5.112;2022-07-21T12:35:36;5.47;;;2.60;;
62030;SDS011;62035;52.094;5.112;2022-07-21T12:38:06;5.38;;;2.70;;
62030;SDS011;62035;52.094;5.112;2022-07-21T12:43:09;6.20;;;2.72;;
62030;SDS011;62035;52.094;5.112;2022-07-21T12:45:52;8.52;;;2.45;;
62030;SDS011;62035;52.094;5.112;2022-07-21T12:48:24;4.35;;;2.38;;
62030;SDS011;62035;52.094;5.112;2022-07-21T12:53:26;7.07;;;2.55;;
62030;SDS011;62035;52.094;5.112;2022-07-21T12:55:55;4.55;;;2.38;;
62030;SDS011;62035;52.094;5.112;2022-07-21T12:58:25;5.90;;;2.55;;
62030;SDS011;62035;52.094;5.112;2022-07-21T13:00:52;5.00;;;2.42;;
62030;SDS011;62035;52.094;5.112;2022-07-21T13:03:20;4.78;;;2.33;;
62030;SDS011;62035;52.094;5.112;2022-07-21T13:05:48;4.45;;;2.15;;
62030;SDS011;62035;52.094;5.112;2022-07-21T13:08:15;5.00;;;2.53;;
62030;SDS011;62035;52.094;5.112;2022-07-21T13:10:44;7.18;;;3.00;;
62030;SDS011;62035;52.094;5.112;2022-07-21T13:13:12;4.72;;;2.42;;
62030;SDS011;62035;52.094;5.112;2022-07-21T13:15:41;7.60;;;2.45;;
62030;SDS011;62035;52.094;5.112;2022-07-21T13:18:08;5.00;;;2.53;;
62030;SDS011;62035;52.094;5.112;2022-07-21T13:20:36;6.28;;;2.63;;
62030;SDS011;62035;52.094;5.112;2022-07-21T13:23:04;6.80;;;2.60;;
62030;SDS011;62035;52.094;5.112;2022-07-21T13:25:34;6.85;;;2.30;;
62030;SDS011;62035;52.094;5.112;2022-07-21T13:28:02;4.97;;;2.30;;
62030;SDS011;62035;52.094;5.112;2022-07-21T13:30:30;4.85;;;2.30;;
62030;SDS011;62035;52.094;5.112;2022-07-21T13:32:59;4.97;;;2.15;;
62030;SDS011;62035;52.094;5.112;2022-07-21T13:35:27;5.75;;;2.33;;
62030;SDS011;62035;52.094;5.112;2022-07-21T13:37:55;8.00;;;2.70;;
62030;SDS011;62035;52.094;5.112;2022-07-21T13:40:25;8.93;;;2.88;;
62030;SDS011;62035;52.094;5.112;2022-07-21T13:42:54;6.75;;;2.33;;
62030;SDS011;62035;52.094;5.112;2022-07-21T13:45:21;7.50;;;2.63;;
62030;SDS011;62035;52.094;5.112;2022-07-21T13:47:49;7.78;;;2.88;;
62030;SDS011;62035;52.094;5.112;2022-07-21T13:50:18;8.48;;;3.17;;
62030;SDS011;62035;52.094;5.112;2022-07-21T13:52:46;10.32;;;3.10;;
62030;SDS011;62035;52.094;5.112;2022-07-21T13:55:14;6.43;;;3.20;;
62030;SDS011;62035;52.094;5.112;2022-07-21T13:57:41;32.00;;;6.50;;
62030;SDS011;62035;52.094;5.112;2022-07-21T14:00:10;27.40;;;5.28;;
62030;SDS011;62035;52.094;5.112;2022-07-21T14:02:39;9.20;;;3.78;;
62030;SDS011;62035;52.094;5.112;2022-07-21T14:05:09;10.57;;;4.20;;
62030;SDS011;62035;52.094;5.112;2022-07-21T14:07:38;27.83;;;7.07;;
62030;SDS011;62035;52.094;5.112;2022-07-21T14:10:06;11.25;;;4.82;;
62030;SDS011;62035;52.094;5.112;2022-07-21T14:12:35;8.70;;;4.38;;
62030;SDS011;62035;52.094;5.112;2022-07-21T14:15:03;6.00;;;4.18;;
62030;SDS011;62035;52.094;5.112;2022-07-21T14:17:32;6.68;;;4.15;;
62030;SDS011;62035;52.094;5.112;2022-07-21T14:19:59;11.00;;;5.25;;
62030;SDS011;62035;52.094;5.112;2022-07-21T14:22:27;6.60;;;4.60;;
62030;SDS011;62035;52.094;5.112;2022-07-21T14:24:56;8.38;;;4.55;;
62030;SDS011;62035;52.094;5.112;2022-07-21T14:27:41;6.47;;;4.38;;
62030;SDS011;62035;52.094;5.112;2022-07-21T14:30:08;8.30;;;4.97;;
62030;SDS011;62035;52.094;5.112;2022-07-21T14:32:37;6.85;;;4.95;;
62030;SDS011;62035;52.094;5.112;2022-07-21T14:35:05;7.20;;;5.45;;
62030;SDS011;62035;52.094;5.112;2022-07-21T14:37:33;7.75;;;5.40;;
62030;SDS011;62035;52.094;5.112;2022-07-21T14:40:02;7.88;;;5.53;;
62030;SDS011;62035;52.094;5.112;2022-07-21T14:42:31;6.40;;;4.93;;
62030;SDS011;62035;52.094;5.112;2022-07-21T14:44:59;11.63;;;4.65;;
62030;SDS011;62035;52.094;5.112;2022-07-21T14:47:27;8.93;;;4.07;;
62030;SDS011;62035;52.094;5.112;2022-07-21T14:49:55;7.93;;;2.80;;
62030;SDS011;62035;52.094;5.112;2022-07-21T14:52:23;7.22;;;2.33;;
62030;SDS011;62035;52.094;5.112;2022-07-21T14:54:51;8.00;;;2.40;;
62030;SDS011;62035;52.094;5.112;2022-07-21T14:57:20;5.40;;;2.03;;
62030;SDS011;62035;52.094;5.112;2022-07-21T14:59:48;9.63;;;1.88;;
62030;SDS011;62035;52.094;5.112;2022-07-21T15:02:16;10.15;;;2.10;;
62030;SDS011;62035;52.094;5.112;2022-07-21T15:04:43;4.25;;;1.40;;
62030;SDS011;62035;52.094;5.112;2022-07-21T15:07:11;8.52;;;1.60;;
62030;SDS011;62035;52.094;5.112;2022-07-21T15:09:38;4.43;;;1.40;;